createdAt,value
2016-06-08T00:00:00.775Z,0
2016-06-08T00:01:00.745Z,0
2016-06-08T00:02:00.749Z,0
2016-06-08T00:03:00.720Z,0
2016-06-08T00:04:01.113Z,0
2016-06-08T00:05:00.741Z,0
2016-06-08T00:06:00.697Z,0
2016-06-08T00:07:00.684Z,0
2016-06-08T00:08:00.671Z,0
2016-06-08T00:09:00.705Z,0
2016-06-08T00:10:00.645Z,0
2016-06-08T00:11:00.882Z,0
2016-06-08T00:12:00.838Z,0
2016-06-08T00:13:00.684Z,0
2016-06-08T00:14:00.437Z,0
2016-06-08T00:15:00.580Z,0
2016-06-08T00:16:00.568Z,0
2016-06-08T00:17:00.571Z,0
2016-06-08T00:18:00.541Z,0
2016-06-08T00:19:00.576Z,0
2016-06-08T00:20:00.531Z,0
2016-06-08T00:21:00.503Z,0
2016-06-08T00:22:00.521Z,0
2016-06-08T00:23:00.493Z,0
2016-06-08T00:24:00.479Z,0
2016-06-08T00:25:00.325Z,0
2016-06-08T00:26:00.657Z,0
2016-06-08T00:27:00.847Z,0
2016-06-08T00:28:00.412Z,0
2016-06-08T00:29:00.461Z,0
2016-06-08T00:30:00.402Z,0
2016-06-08T00:31:00.389Z,0
2016-06-08T00:32:00.376Z,0
2016-06-08T00:33:00.207Z,0
2016-06-08T00:34:00.366Z,0
2016-06-08T00:35:00.369Z,0
2016-06-08T00:36:00.168Z,0
2016-06-08T00:37:00.327Z,0
2016-06-08T00:38:00.174Z,0
2016-06-08T00:39:00.301Z,0
2016-06-08T00:40:00.195Z,0
2016-06-08T00:41:00.275Z,0
2016-06-08T00:42:00.419Z,0
2016-06-08T00:43:00.250Z,0
2016-06-08T00:44:00.252Z,0
2016-06-08T00:45:00.224Z,0
2016-06-08T00:46:00.195Z,0
2016-06-08T00:47:00.213Z,0
2016-06-08T00:48:00.216Z,0
2016-06-08T00:49:00.188Z,0
2016-06-08T00:50:00.190Z,0
2016-06-08T00:51:00.162Z,0
2016-06-08T00:52:00.164Z,0
2016-06-08T00:53:00.135Z,0
2016-06-08T00:54:00.107Z,0
2016-06-08T00:55:00.094Z,0
2016-06-08T00:56:00.316Z,0
2016-06-08T00:57:00.490Z,0
2016-06-08T00:57:59.915Z,0
2016-06-08T00:59:00.074Z,0
2016-06-08T01:00:00.076Z,0
2016-06-08T01:01:00.064Z,0
2016-06-08T01:02:00.034Z,0
2016-06-08T01:03:00.022Z,0
2016-06-08T01:04:00.103Z,0
2016-06-08T01:04:59.981Z,0
2016-06-08T01:06:00.092Z,0
2016-06-08T01:06:59.830Z,0
2016-06-08T01:08:00.004Z,0
2016-06-08T01:08:59.944Z,0
2016-06-08T01:09:59.635Z,0
2016-06-08T01:11:00.074Z,0
2016-06-08T01:12:01.031Z,0
2016-06-08T01:12:59.908Z,0
2016-06-08T01:13:59.942Z,0
2016-06-08T01:14:59.883Z,0
2016-06-08T01:15:59.916Z,0
2016-06-08T01:16:59.857Z,0
2016-06-08T01:17:59.687Z,0
2016-06-08T01:18:59.674Z,0
2016-06-08T01:19:59.880Z,0
2016-06-08T01:20:59.821Z,0
2016-06-08T01:21:59.792Z,0
2016-06-08T01:22:59.779Z,0
2016-06-08T01:23:59.813Z,0
2016-06-08T01:24:59.753Z,0
2016-06-08T01:25:59.787Z,0
2016-06-08T01:26:59.758Z,0
2016-06-08T01:27:59.777Z,0
2016-06-08T01:28:59.717Z,0
2016-06-08T01:29:59.751Z,0
2016-06-08T01:30:59.692Z,0
2016-06-08T01:31:59.756Z,0
2016-06-08T01:32:59.665Z,0
2016-06-08T01:33:59.652Z,0
2016-06-08T01:34:59.483Z,0
2016-06-08T01:35:59.626Z,0
2016-06-08T01:36:59.598Z,0
2016-06-08T01:37:59.600Z,0
2016-06-08T01:38:59.572Z,0
2016-06-08T01:39:59.574Z,0
2016-06-08T01:40:59.546Z,0
2016-06-08T01:41:59.408Z,0
2016-06-08T01:42:59.551Z,0
2016-06-08T01:43:59.523Z,0
2016-06-08T01:44:59.525Z,0
2016-06-08T01:45:59.528Z,0
2016-06-08T01:46:59.500Z,0
2016-06-08T01:47:59.487Z,0
2016-06-08T01:48:59.318Z,0
2016-06-08T01:49:59.460Z,0
2016-06-08T01:50:59.448Z,0
2016-06-08T01:51:59.435Z,0
2016-06-08T01:52:59.438Z,0
2016-06-08T01:53:59.409Z,0
2016-06-08T01:54:59.396Z,0
2016-06-08T01:55:59.383Z,0
2016-06-08T01:56:59.401Z,0
2016-06-08T01:57:59.357Z,0
2016-06-08T01:58:59.345Z,0
2016-06-08T01:59:59.332Z,0
2016-06-08T02:00:59.334Z,0
2016-06-08T02:01:59.165Z,0
2016-06-08T02:02:59.293Z,0
2016-06-08T02:03:59.280Z,0
2016-06-08T02:04:59.361Z,0
2016-06-08T02:05:59.253Z,0
2016-06-08T02:06:59.272Z,0
2016-06-08T02:07:59.244Z,0
2016-06-08T02:08:59.075Z,0
2016-06-08T02:09:59.217Z,0
2016-06-08T02:10:59.220Z,0
2016-06-08T02:11:59.879Z,0
2016-06-08T02:12:59.289Z,0
2016-06-08T02:13:59.182Z,0
2016-06-08T02:14:59.247Z,0
2016-06-08T02:15:59.156Z,0
2016-06-08T02:16:59.190Z,0
2016-06-08T02:17:59.099Z,0
2016-06-08T02:18:59.102Z,0
2016-06-08T02:19:59.088Z,0
2016-06-08T02:20:59.076Z,0
2016-06-08T02:21:59.093Z,0
2016-06-08T02:22:58.893Z,0
2016-06-08T02:23:59.052Z,0
2016-06-08T02:24:59.071Z,0
2016-06-08T02:25:59.026Z,0
2016-06-08T02:26:59.498Z,0
2016-06-08T02:28:00.219Z,0
2016-06-08T02:28:58.987Z,0
2016-06-08T02:29:58.959Z,0
2016-06-08T02:30:58.820Z,0
2016-06-08T02:31:58.934Z,4
2016-06-08T02:32:58.951Z,4
2016-06-08T02:33:58.954Z,0
2016-06-08T02:34:58.926Z,0
2016-06-08T02:35:58.897Z,0
2016-06-08T02:36:58.900Z,4
2016-06-08T02:37:58.903Z,4
2016-06-08T02:38:58.920Z,0
2016-06-08T02:39:58.861Z,4
2016-06-08T02:40:58.880Z,4
2016-06-08T02:41:59.350Z,4
2016-06-08T02:42:59.494Z,8
2016-06-08T02:43:58.793Z,4
2016-06-08T02:44:58.811Z,4
2016-06-08T02:45:58.753Z,8
2016-06-08T02:46:58.754Z,8
2016-06-08T02:47:58.774Z,8
2016-06-08T02:48:58.744Z,8
2016-06-08T02:49:58.732Z,12
2016-06-08T02:50:58.719Z,12
2016-06-08T02:51:58.549Z,16
2016-06-08T02:52:58.693Z,16
2016-06-08T02:53:58.680Z,16
2016-06-08T02:54:58.651Z,20
2016-06-08T02:55:58.654Z,20
2016-06-08T02:56:58.688Z,20
2016-06-08T02:57:58.643Z,28
2016-06-08T02:58:58.615Z,32
2016-06-08T02:59:58.601Z,32
2016-06-08T03:00:58.589Z,32
2016-06-08T03:01:58.437Z,40
2016-06-08T03:02:58.563Z,44
2016-06-08T03:03:58.551Z,44
2016-06-08T03:04:58.553Z,52
2016-06-08T03:05:58.525Z,56
2016-06-08T03:06:58.371Z,64
2016-06-08T03:07:58.358Z,68
2016-06-08T03:08:58.330Z,72
2016-06-08T03:09:58.504Z,80
2016-06-08T03:10:58.475Z,84
2016-06-08T03:11:58.884Z,92
2016-06-08T03:12:58.700Z,100
2016-06-08T03:13:58.452Z,104
2016-06-08T03:14:58.424Z,116
2016-06-08T03:15:58.488Z,120
2016-06-08T03:16:58.241Z,128
2016-06-08T03:17:58.386Z,140
2016-06-08T03:18:58.357Z,148
2016-06-08T03:19:58.360Z,156
2016-06-08T03:20:58.330Z,168
2016-06-08T03:21:58.443Z,180
2016-06-08T03:22:58.320Z,192
2016-06-08T03:23:58.307Z,200
2016-06-08T03:24:58.294Z,216
2016-06-08T03:25:58.313Z,228
2016-06-08T03:26:58.050Z,244
2016-06-08T03:27:58.568Z,260
2016-06-08T03:28:58.259Z,276
2016-06-08T03:29:58.323Z,292
2016-06-08T03:30:58.232Z,308
2016-06-08T03:31:58.047Z,328
2016-06-08T03:32:58.190Z,344
2016-06-08T03:33:58.194Z,364
2016-06-08T03:34:58.196Z,384
2016-06-08T03:35:58.262Z,404
2016-06-08T03:36:58.139Z,424
2016-06-08T03:37:58.111Z,444
2016-06-08T03:38:58.114Z,468
2016-06-08T03:39:58.100Z,488
2016-06-08T03:40:58.087Z,508
2016-06-08T03:41:58.106Z,528
2016-06-08T03:42:58.093Z,556
2016-06-08T03:43:58.111Z,580
2016-06-08T03:44:58.020Z,604
2016-06-08T03:45:58.023Z,624
2016-06-08T03:46:58.025Z,648
2016-06-08T03:47:57.980Z,672
2016-06-08T03:48:58.000Z,696
2016-06-08T03:49:58.002Z,724
2016-06-08T03:50:57.974Z,748
2016-06-08T03:51:57.960Z,772
2016-06-08T03:52:57.963Z,800
2016-06-08T03:53:57.919Z,824
2016-06-08T03:54:57.907Z,848
2016-06-08T03:55:57.909Z,872
2016-06-08T03:56:58.849Z,896
2016-06-08T03:57:57.898Z,924
2016-06-08T03:58:57.855Z,948
2016-06-08T03:59:57.874Z,972
2016-06-08T04:00:57.673Z,1000
2016-06-08T04:01:57.722Z,1024
2016-06-08T04:02:57.818Z,1052
2016-06-08T04:03:57.806Z,1076
2016-06-08T04:04:57.792Z,1100
2016-06-08T04:05:57.779Z,1128
2016-06-08T04:06:57.767Z,1156
2016-06-08T04:07:57.754Z,1184
2016-06-08T04:08:57.756Z,1212
2016-06-08T04:09:57.712Z,1244
2016-06-08T04:10:57.575Z,1276
2016-06-08T04:11:58.561Z,1312
2016-06-08T04:12:58.220Z,1344
2016-06-08T04:13:57.691Z,1372
2016-06-08T04:14:57.648Z,1408
2016-06-08T04:15:57.495Z,1448
2016-06-08T04:16:57.622Z,1480
2016-06-08T04:17:57.624Z,1508
2016-06-08T04:18:57.611Z,1536
2016-06-08T04:19:57.583Z,1572
2016-06-08T04:20:57.585Z,1600
2016-06-08T04:21:57.572Z,1632
2016-06-08T04:22:57.560Z,1660
2016-06-08T04:23:57.391Z,1688
2016-06-08T04:24:57.534Z,1720
2016-06-08T04:25:57.505Z,1740
2016-06-08T04:26:57.508Z,1768
2016-06-08T04:27:57.510Z,1796
2016-06-08T04:28:57.482Z,1824
2016-06-08T04:29:57.468Z,1848
2016-06-08T04:30:57.519Z,1876
2016-06-08T04:31:57.288Z,1900
2016-06-08T04:32:57.446Z,1924
2016-06-08T04:33:57.434Z,1940
2016-06-08T04:34:57.451Z,1964
2016-06-08T04:35:57.392Z,1992
2016-06-08T04:36:57.378Z,2016
2016-06-08T04:37:57.365Z,2044
2016-06-08T04:38:57.415Z,2060
2016-06-08T04:39:57.340Z,2080
2016-06-08T04:40:57.342Z,2092
2016-06-08T04:41:57.158Z,2128
2016-06-08T04:42:57.754Z,2160
2016-06-08T04:43:57.288Z,2192
2016-06-08T04:44:57.291Z,2224
2016-06-08T04:45:57.277Z,2248
2016-06-08T04:46:57.250Z,2280
2016-06-08T04:47:57.253Z,2320
2016-06-08T04:48:57.224Z,2356
2016-06-08T04:49:57.210Z,2384
2016-06-08T04:50:57.229Z,2408
2016-06-08T04:51:57.200Z,2436
2016-06-08T04:52:57.187Z,2464
2016-06-08T04:53:57.191Z,2488
2016-06-08T04:54:57.146Z,2524
2016-06-08T04:55:57.149Z,2556
2016-06-08T04:56:57.135Z,2592
2016-06-08T04:57:56.966Z,2624
2016-06-08T04:58:57.157Z,2660
2016-06-08T04:59:57.081Z,2692
2016-06-08T05:00:57.099Z,2712
2016-06-08T05:01:57.086Z,2728
2016-06-08T05:02:57.104Z,2744
2016-06-08T05:03:57.046Z,2768
2016-06-08T05:04:57.048Z,2796
2016-06-08T05:05:57.004Z,2820
2016-06-08T05:06:57.009Z,2872
2016-06-08T05:07:57.022Z,2908
2016-06-08T05:08:57.005Z,2940
2016-06-08T05:09:57.032Z,2972
2016-06-08T05:10:57.015Z,2996
2016-06-08T05:11:56.994Z,3016
2016-06-08T05:12:57.876Z,3040
2016-06-08T05:13:56.991Z,3060
2016-06-08T05:14:56.873Z,3080
2016-06-08T05:15:56.973Z,3112
2016-06-08T05:16:56.963Z,3136
2016-06-08T05:17:56.936Z,3168
2016-06-08T05:18:56.799Z,3224
2016-06-08T05:19:56.928Z,3268
2016-06-08T05:20:56.901Z,3304
2016-06-08T05:21:56.905Z,3340
2016-06-08T05:22:56.907Z,3392
2016-06-08T05:23:56.864Z,3428
2016-06-08T05:24:56.711Z,3472
2016-06-08T05:25:56.839Z,3508
2016-06-08T05:26:56.842Z,3548
2016-06-08T05:27:57.470Z,3584
2016-06-08T05:28:56.817Z,3608
2016-06-08T05:29:56.804Z,3664
2016-06-08T05:30:56.792Z,3708
2016-06-08T05:31:56.638Z,3748
2016-06-08T05:32:56.844Z,3800
2016-06-08T05:33:56.644Z,3852
2016-06-08T05:34:56.740Z,3904
2016-06-08T05:35:56.806Z,3964
2016-06-08T05:36:56.714Z,4020
2016-06-08T05:37:56.733Z,4068
2016-06-08T05:38:56.704Z,4132
2016-06-08T05:39:56.722Z,4208
2016-06-08T05:40:56.679Z,4272
2016-06-08T05:41:56.587Z,4328
2016-06-08T05:42:56.684Z,4384
2016-06-08T05:43:56.639Z,4456
2016-06-08T05:44:56.642Z,4512
2016-06-08T05:45:56.661Z,4572
2016-06-08T05:46:56.601Z,4624
2016-06-08T05:47:56.603Z,4692
2016-06-08T05:48:56.591Z,4744
2016-06-08T05:49:56.422Z,4808
2016-06-08T05:50:56.564Z,4872
2016-06-08T05:51:56.552Z,4924
2016-06-08T05:52:56.539Z,4964
2016-06-08T05:53:56.557Z,5008
2016-06-08T05:54:56.497Z,5056
2016-06-08T05:55:56.593Z,5116
2016-06-08T05:56:56.503Z,5156
2016-06-08T05:57:57.271Z,5188
2016-06-08T05:58:57.055Z,5224
2016-06-08T05:59:56.463Z,5264
2016-06-08T06:00:56.435Z,5292
2016-06-08T06:01:56.454Z,5324
2016-06-08T06:02:56.424Z,5352
2016-06-08T06:03:56.412Z,5356
2016-06-08T06:04:56.398Z,5364
2016-06-08T06:05:56.387Z,5372
2016-06-08T06:06:56.374Z,5404
2016-06-08T06:07:56.407Z,5412
2016-06-08T06:08:56.347Z,5404
2016-06-08T06:09:56.350Z,5392
2016-06-08T06:10:56.321Z,5380
2016-06-08T06:11:56.355Z,5396
2016-06-08T06:12:56.608Z,5420
2016-06-08T06:13:56.892Z,5452
2016-06-08T06:14:56.286Z,5504
2016-06-08T06:15:56.289Z,5568
2016-06-08T06:16:56.275Z,5616
2016-06-08T06:17:56.247Z,5664
2016-06-08T06:18:56.249Z,5696
2016-06-08T06:19:56.236Z,5660
2016-06-08T06:20:56.067Z,5692
2016-06-08T06:21:56.225Z,5616
2016-06-08T06:22:56.197Z,5588
2016-06-08T06:23:56.185Z,5560
2016-06-08T06:24:56.172Z,5548
2016-06-08T06:25:56.158Z,5520
2016-06-08T06:26:56.161Z,5488
2016-06-08T06:27:56.383Z,5452
2016-06-08T06:28:56.135Z,5452
2016-06-08T06:29:56.107Z,5456
2016-06-08T06:30:56.109Z,5472
2016-06-08T06:31:55.940Z,5456
2016-06-08T06:32:56.100Z,5404
2016-06-08T06:33:56.071Z,5372
2016-06-08T06:34:56.073Z,5384
2016-06-08T06:35:56.046Z,5340
2016-06-08T06:36:55.891Z,5244
2016-06-08T06:37:56.035Z,5104
2016-06-08T06:38:56.068Z,5000
2016-06-08T06:39:56.009Z,4944
2016-06-08T06:40:56.012Z,4912
2016-06-08T06:41:55.998Z,4860
2016-06-08T06:42:55.861Z,4824
2016-06-08T06:43:56.270Z,4800
2016-06-08T06:44:56.007Z,4824
2016-06-08T06:45:55.947Z,4884
2016-06-08T06:46:55.934Z,4956
2016-06-08T06:47:55.781Z,5020
2016-06-08T06:48:55.955Z,5088
2016-06-08T06:49:55.895Z,5156
2016-06-08T06:50:55.882Z,5248
2016-06-08T06:51:55.869Z,5308
2016-06-08T06:52:55.888Z,5364
2016-06-08T06:53:55.859Z,5568
2016-06-08T06:54:55.847Z,5708
2016-06-08T06:55:55.833Z,5800
2016-06-08T06:56:55.836Z,5748
2016-06-08T06:57:55.854Z,5804
2016-06-08T06:58:56.716Z,5932
2016-06-08T06:59:55.813Z,6100
2016-06-08T07:00:55.862Z,6076
2016-06-08T07:01:55.787Z,5988
2016-06-08T07:02:55.774Z,6016
2016-06-08T07:03:55.589Z,6148
2016-06-08T07:04:55.733Z,6140
2016-06-08T07:05:55.578Z,6276
2016-06-08T07:06:55.722Z,6368
2016-06-08T07:07:55.741Z,6348
2016-06-08T07:08:55.712Z,6228
2016-06-08T07:09:55.527Z,6572
2016-06-08T07:10:55.670Z,6624
2016-06-08T07:11:55.673Z,6740
2016-06-08T07:12:55.692Z,6872
2016-06-08T07:13:56.053Z,6888
2016-06-08T07:14:55.634Z,6828
2016-06-08T07:15:55.480Z,6780
2016-06-08T07:16:55.608Z,6744
2016-06-08T07:17:55.596Z,6752
2016-06-08T07:18:55.598Z,6756
2016-06-08T07:19:55.590Z,6756
2016-06-08T07:20:55.593Z,6776
2016-06-08T07:21:55.598Z,6724
2016-06-08T07:22:55.389Z,6668
2016-06-08T07:23:55.534Z,6708
2016-06-08T07:24:55.544Z,6780
2016-06-08T07:25:55.562Z,6696
2016-06-08T07:26:55.519Z,6716
2016-06-08T07:27:56.897Z,6832
2016-06-08T07:28:56.618Z,7020
2016-06-08T07:29:55.480Z,7284
2016-06-08T07:30:55.483Z,7180
2016-06-08T07:31:55.485Z,7272
2016-06-08T07:32:55.456Z,7432
2016-06-08T07:33:55.459Z,7540
2016-06-08T07:34:55.421Z,7620
2016-06-08T07:35:55.423Z,7704
2016-06-08T07:36:55.411Z,7780
2016-06-08T07:37:55.320Z,7732
2016-06-08T07:38:55.386Z,7628
2016-06-08T07:39:55.419Z,7652
2016-06-08T07:40:55.380Z,7680
2016-06-08T07:41:55.461Z,7780
2016-06-08T07:42:56.541Z,7880
2016-06-08T07:43:55.419Z,8032
2016-06-08T07:44:55.360Z,8056
2016-06-08T07:45:55.221Z,8048
2016-06-08T07:46:55.333Z,8108
2016-06-08T07:47:55.320Z,8144
2016-06-08T07:48:55.135Z,8072
2016-06-08T07:49:55.310Z,8060
2016-06-08T07:50:55.293Z,8112
2016-06-08T07:51:55.263Z,8168
2016-06-08T07:52:55.266Z,8232
2016-06-08T07:53:55.176Z,8324
2016-06-08T07:54:55.240Z,8476
2016-06-08T07:55:55.087Z,8540
2016-06-08T07:56:55.248Z,8648
2016-06-08T07:57:55.219Z,8792
2016-06-08T07:58:55.222Z,8928
2016-06-08T07:59:55.209Z,9004
2016-06-08T08:00:55.180Z,9032
2016-06-08T08:01:55.167Z,9116
2016-06-08T08:02:55.170Z,9144
2016-06-08T08:03:55.189Z,9184
2016-06-08T08:04:55.160Z,9240
2016-06-08T08:05:55.163Z,9260
2016-06-08T08:06:55.181Z,9344
2016-06-08T08:07:55.137Z,9444
2016-06-08T08:08:55.125Z,9332
2016-06-08T08:09:55.111Z,9264
2016-06-08T08:10:55.114Z,9356
2016-06-08T08:11:55.135Z,9528
2016-06-08T08:12:55.435Z,9656
2016-06-08T08:13:54.984Z,9716
2016-06-08T08:14:55.057Z,9704
2016-06-08T08:15:55.091Z,9776
2016-06-08T08:16:55.062Z,10016
2016-06-08T08:17:55.065Z,9800
2016-06-08T08:18:55.083Z,9904
2016-06-08T08:19:55.055Z,10032
2016-06-08T08:20:54.932Z,10460
2016-06-08T08:21:54.998Z,10716
2016-06-08T08:22:55.000Z,10980
2016-06-08T08:23:54.988Z,11084
2016-06-08T08:24:55.007Z,11176
2016-06-08T08:25:54.836Z,11268
2016-06-08T08:26:54.996Z,11160
2016-06-08T08:27:55.326Z,11212
2016-06-08T08:28:54.860Z,11096
2016-06-08T08:29:54.941Z,11076
2016-06-08T08:30:54.850Z,11020
2016-06-08T08:31:54.931Z,10860
2016-06-08T08:32:54.933Z,10660
2016-06-08T08:33:54.920Z,10820
2016-06-08T08:34:54.954Z,10820
2016-06-08T08:35:54.894Z,10696
2016-06-08T08:36:54.959Z,10536
2016-06-08T08:37:54.900Z,10852
2016-06-08T08:38:54.997Z,11192
2016-06-08T08:39:54.734Z,11520
2016-06-08T08:40:54.799Z,11624
2016-06-08T08:41:54.848Z,11664
2016-06-08T08:42:54.883Z,11740
2016-06-08T08:43:55.245Z,11728
2016-06-08T08:44:54.919Z,11528
2016-06-08T08:45:54.828Z,11772
2016-06-08T08:46:54.799Z,12116
2016-06-08T08:47:54.661Z,12244
2016-06-08T08:48:54.788Z,12332
2016-06-08T08:49:54.776Z,12252
2016-06-08T08:50:54.779Z,12280
2016-06-08T08:51:54.765Z,12464
2016-06-08T08:52:54.784Z,12400
2016-06-08T08:53:54.755Z,12088
2016-06-08T08:54:54.757Z,12084
2016-06-08T08:55:54.745Z,11916
2016-06-08T08:56:54.717Z,11164
2016-06-08T08:57:54.735Z,10936
2016-06-08T08:58:54.723Z,11012
2016-06-08T08:59:54.741Z,10832
2016-06-08T09:00:54.539Z,10496
2016-06-08T09:01:54.606Z,10480
2016-06-08T09:02:54.734Z,10736
2016-06-08T09:03:55.204Z,11404
2016-06-08T09:04:54.676Z,11472
2016-06-08T09:05:54.709Z,11204
2016-06-08T09:06:54.650Z,11476
2016-06-08T09:07:54.668Z,12108
2016-06-08T09:08:54.670Z,13316
2016-06-08T09:09:54.502Z,13988
2016-06-08T09:10:54.661Z,15092
2016-06-08T09:11:54.147Z,17408
2016-06-08T09:12:54.635Z,18752
2016-06-08T09:13:54.934Z,23040
2016-06-08T09:14:54.609Z,26464
2016-06-08T09:15:54.502Z,29152
2016-06-08T09:16:54.583Z,35968
2016-06-08T09:17:54.602Z,42752
2016-06-08T09:18:54.588Z,43264
2016-06-08T09:19:54.575Z,52800
2016-06-08T09:20:54.578Z,50208
2016-06-08T09:21:54.566Z,57024
2016-06-08T09:22:54.552Z,54816
2016-06-08T09:23:54.602Z,59648
2016-06-08T09:24:54.542Z,58816
2016-06-08T09:25:54.545Z,50528
2016-06-08T09:26:54.532Z,43776
2016-06-08T09:27:54.535Z,46784
2016-06-08T09:28:54.553Z,47552
2016-06-08T09:29:54.539Z,46816
2016-06-08T09:30:54.355Z,47008
2016-06-08T09:31:54.514Z,43904
2016-06-08T09:32:54.517Z,45280
2016-06-08T09:33:54.519Z,47200
2016-06-08T09:34:54.490Z,46432
2016-06-08T09:35:54.493Z,50624
2016-06-08T09:36:54.495Z,49120
2016-06-08T09:37:54.483Z,48640
2016-06-08T09:38:54.845Z,44416
2016-06-08T09:39:54.473Z,46464
2016-06-08T09:40:54.554Z,44928
2016-06-08T09:41:54.447Z,36352
2016-06-08T09:42:54.528Z,40288
2016-06-08T09:43:55.203Z,43008
2016-06-08T09:44:55.268Z,42304
2016-06-08T09:45:54.474Z,38688
2016-06-08T09:46:54.398Z,34720
2016-06-08T09:47:54.432Z,30176
2016-06-08T09:48:54.497Z,31296
2016-06-08T09:49:54.453Z,24448
2016-06-08T09:50:54.455Z,20832
2016-06-08T09:51:54.443Z,20224
2016-06-08T09:52:54.413Z,19840
2016-06-08T09:53:54.433Z,19136
2016-06-08T09:54:54.419Z,16480
2016-06-08T09:55:54.422Z,18336
2016-06-08T09:56:54.424Z,22816
2016-06-08T09:57:54.427Z,23520
2016-06-08T09:58:54.555Z,21824
2016-06-08T09:59:55.604Z,20160
2016-06-08T10:00:54.389Z,18912
2016-06-08T10:01:54.392Z,20160
2016-06-08T10:02:54.379Z,22528
2016-06-08T10:03:54.365Z,26144
2016-06-08T10:04:54.384Z,27840
2016-06-08T10:05:54.371Z,32992
2016-06-08T10:06:54.343Z,35744
2016-06-08T10:07:54.362Z,36160
2016-06-08T10:08:54.347Z,36992
2016-06-08T10:09:54.351Z,39744
2016-06-08T10:10:54.228Z,41536
2016-06-08T10:11:54.403Z,38976
2016-06-08T10:12:54.343Z,37792
2016-06-08T10:13:55.049Z,32832
2016-06-08T10:14:54.427Z,32640
2016-06-08T10:15:54.383Z,34208
2016-06-08T10:16:54.323Z,33792
2016-06-08T10:17:54.325Z,33920
2016-06-08T10:18:54.312Z,30016
2016-06-08T10:19:54.330Z,29216
2016-06-08T10:20:54.177Z,30656
2016-06-08T10:21:54.305Z,28064
2016-06-08T10:22:54.307Z,28160
2016-06-08T10:23:54.341Z,26336
2016-06-08T10:24:54.453Z,24736
2016-06-08T10:25:54.393Z,20160
2016-06-08T10:26:54.271Z,16512
2016-06-08T10:27:54.274Z,13260
2016-06-08T10:28:54.996Z,12664
2016-06-08T10:29:54.138Z,12672
2016-06-08T10:30:54.345Z,12940
2016-06-08T10:31:54.300Z,13136
2016-06-08T10:32:54.272Z,13092
2016-06-08T10:33:54.259Z,13328
2016-06-08T10:34:54.262Z,13364
2016-06-08T10:35:54.248Z,13540
2016-06-08T10:36:54.236Z,13364
2016-06-08T10:37:54.254Z,13696
2016-06-08T10:38:54.257Z,13352
2016-06-08T10:39:54.244Z,13052
2016-06-08T10:40:54.247Z,13408
2016-06-08T10:41:54.234Z,13228
2016-06-08T10:42:54.267Z,12400
2016-06-08T10:43:54.426Z,12364
2016-06-08T10:44:54.367Z,12192
2016-06-08T10:45:54.244Z,12088
2016-06-08T10:46:54.247Z,11504
2016-06-08T10:47:54.202Z,10756
2016-06-08T10:48:54.189Z,10252
2016-06-08T10:49:54.036Z,10184
2016-06-08T10:50:54.195Z,9972
2016-06-08T10:51:55.197Z,10064
2016-06-08T10:52:54.482Z,10280
2016-06-08T10:53:54.172Z,9916
2016-06-08T10:54:54.191Z,9716
2016-06-08T10:55:54.162Z,9572
2016-06-08T10:56:54.210Z,9596
2016-06-08T10:57:54.354Z,9632
2016-06-08T10:58:55.826Z,9856
2016-06-08T10:59:54.391Z,10144
2016-06-08T11:00:54.160Z,10376
2016-06-08T11:01:54.163Z,10140
2016-06-08T11:02:54.134Z,9884
2016-06-08T11:03:53.996Z,9880
2016-06-08T11:04:54.139Z,9732
2016-06-08T11:05:54.110Z,9448
2016-06-08T11:06:53.973Z,9560
2016-06-08T11:07:53.976Z,9464
2016-06-08T11:08:54.103Z,9564
2016-06-08T11:09:54.106Z,9532
2016-06-08T11:10:54.108Z,9588
2016-06-08T11:11:53.939Z,9508
2016-06-08T11:12:54.067Z,9656
2016-06-08T11:13:58.835Z,9504
2016-06-08T11:14:54.134Z,9560
2016-06-08T11:15:53.966Z,9520
2016-06-08T11:16:54.046Z,9632
2016-06-08T11:17:54.064Z,9760
2016-06-08T11:18:54.036Z,10148
2016-06-08T11:19:54.022Z,10260
2016-06-08T11:20:54.026Z,10256
2016-06-08T11:21:53.873Z,10076
2016-06-08T11:22:54.015Z,10084
2016-06-08T11:23:54.034Z,10172
2016-06-08T11:24:53.849Z,10060
2016-06-08T11:25:54.055Z,10280
2016-06-08T11:26:53.839Z,10464
2016-06-08T11:27:54.013Z,10284
2016-06-08T11:28:53.844Z,10524
2016-06-08T11:29:54.894Z,10568
2016-06-08T11:30:53.990Z,10760
2016-06-08T11:31:54.009Z,11148
2016-06-08T11:32:53.933Z,11396
2016-06-08T11:33:54.060Z,11796
2016-06-08T11:34:53.938Z,11412
2016-06-08T11:35:53.957Z,11700
2016-06-08T11:36:53.959Z,12120
2016-06-08T11:37:53.946Z,12220
2016-06-08T11:38:53.933Z,12092
2016-06-08T11:39:53.639Z,12104
2016-06-08T11:40:53.940Z,12444
2016-06-08T11:41:53.911Z,12544
2016-06-08T11:42:53.601Z,12368
2016-06-08T11:43:54.650Z,12476
2016-06-08T11:44:53.965Z,12328
2016-06-08T11:45:53.750Z,12020
2016-06-08T11:46:53.753Z,11776
2016-06-08T11:47:53.895Z,11776
2016-06-08T11:48:53.758Z,11844
2016-06-08T11:49:53.869Z,11476
2016-06-08T11:50:54.575Z,11160
2016-06-08T11:51:53.719Z,10608
2016-06-08T11:52:53.877Z,10828
2016-06-08T11:53:53.724Z,10860
2016-06-08T11:54:53.696Z,10916
2016-06-08T11:55:53.838Z,10700
2016-06-08T11:56:53.702Z,10176
2016-06-08T11:57:53.688Z,10516
2016-06-08T11:58:53.534Z,10716
2016-06-08T11:59:53.709Z,10816
2016-06-08T12:00:53.696Z,10516
2016-06-08T12:01:53.682Z,10516
2016-06-08T12:02:53.702Z,11244
2016-06-08T12:03:53.657Z,10908
2016-06-08T12:04:53.800Z,10356
2016-06-08T12:05:53.804Z,10288
2016-06-08T12:06:53.837Z,10272
2016-06-08T12:07:53.777Z,10376
2016-06-08T12:08:53.484Z,10028
2016-06-08T12:09:53.767Z,10232
2016-06-08T12:10:53.817Z,10960
2016-06-08T12:11:53.788Z,10844
2016-06-08T12:12:54.259Z,11656
2016-06-08T12:13:53.762Z,11140
2016-06-08T12:14:53.828Z,11496
2016-06-08T12:15:53.783Z,11032
2016-06-08T12:16:53.739Z,10680
2016-06-08T12:17:53.742Z,10444
2016-06-08T12:18:53.650Z,9924
2016-06-08T12:19:53.419Z,10228
2016-06-08T12:20:53.577Z,9228
2016-06-08T12:21:53.549Z,8880
2016-06-08T12:22:53.552Z,8544
2016-06-08T12:23:53.695Z,8620
2016-06-08T12:24:53.541Z,8604
2016-06-08T12:25:53.779Z,9232
2016-06-08T12:26:53.688Z,9080
2016-06-08T12:27:53.675Z,8604
2016-06-08T12:28:53.522Z,8424
2016-06-08T12:29:55.196Z,8448
2016-06-08T12:30:53.698Z,8640
2016-06-08T12:31:53.780Z,9472
2016-06-08T12:32:53.673Z,9384
2016-06-08T12:33:53.644Z,8912
2016-06-08T12:34:53.678Z,8864
2016-06-08T12:35:53.790Z,8744
2016-06-08T12:36:53.637Z,8524
2016-06-08T12:37:53.639Z,8896
2016-06-08T12:38:53.642Z,9708
2016-06-08T12:39:53.676Z,10664
2016-06-08T12:40:53.475Z,9764
2016-06-08T12:41:53.447Z,10716
2016-06-08T12:42:53.606Z,10440
2016-06-08T12:43:53.609Z,10412
2016-06-08T12:44:53.580Z,10536
2016-06-08T12:45:53.583Z,10280
2016-06-08T12:46:53.601Z,10100
2016-06-08T12:47:53.588Z,9424
2016-06-08T12:48:53.419Z,9204
2016-06-08T12:49:53.422Z,8416
2016-06-08T12:50:53.580Z,8876
2016-06-08T12:51:53.552Z,8356
2016-06-08T12:52:53.555Z,8044
2016-06-08T12:53:53.541Z,8340
2016-06-08T12:54:53.560Z,8388
2016-06-08T12:55:53.391Z,8556
2016-06-08T12:56:53.549Z,8708
2016-06-08T12:57:53.537Z,8748
2016-06-08T12:58:53.539Z,8664
2016-06-08T12:59:53.589Z,8824
2016-06-08T13:01:24.874Z,8592
2016-06-08T13:01:53.516Z,8564
2016-06-08T13:02:53.535Z,8440
2016-06-08T13:03:53.490Z,8320
2016-06-08T13:04:53.493Z,8404
2016-06-08T13:05:53.496Z,8200
2016-06-08T13:06:53.514Z,8280
2016-06-08T13:07:53.485Z,8056
2016-06-08T13:08:53.565Z,7944
2016-06-08T13:09:53.490Z,8428
2016-06-08T13:10:53.463Z,8292
2016-06-08T13:11:53.449Z,8332
2016-06-08T13:12:53.451Z,8712
2016-06-08T13:13:53.454Z,9044
2016-06-08T13:14:53.645Z,8940
2016-06-08T13:15:53.539Z,9204
2016-06-08T13:16:53.447Z,8940
2016-06-08T13:17:53.450Z,9316
2016-06-08T13:18:53.421Z,9448
2016-06-08T13:19:53.439Z,9020
2016-06-08T13:20:53.412Z,8604
2016-06-08T13:21:53.414Z,7892
2016-06-08T13:22:53.260Z,8016
2016-06-08T13:23:53.435Z,8680
2016-06-08T13:24:53.391Z,7996
2016-06-08T13:25:53.394Z,7780
2016-06-08T13:26:53.396Z,8084
2016-06-08T13:27:53.399Z,7524
2016-06-08T13:28:53.386Z,7120
2016-06-08T13:29:53.372Z,7384
2016-06-08T13:30:53.391Z,8020